createdAt,value
2023-02-24T00:01:40.243Z,101856.20
2023-02-24T00:04:52.741Z,101848.87
2023-02-24T00:07:47.236Z,101840.05
2023-02-24T00:10:40.613Z,101847.21
2023-02-24T00:13:20.918Z,101845.16
2023-02-24T00:20:44.167Z,101847.21
2023-02-24T00:23:44.845Z,101844.70
2023-02-24T00:26:34.018Z,101836.41
2023-02-24T00:32:08.460Z,101830.25
2023-02-24T00:35:18.528Z,101817.92
2023-02-24T00:38:00.985Z,101812.15
2023-02-24T00:40:52.713Z,101814.05
2023-02-24T00:43:20.873Z,101810.80
2023-02-24T00:46:11.384Z,101795.66
2023-02-24T00:48:50.411Z,101796.83
2023-02-24T11:55:21.072Z,101091.74
2023-02-24T11:57:52.126Z,101089.86
2023-02-24T12:00:29.243Z,101090.58
2023-02-24T12:03:25.776Z,101084.10
2023-02-24T12:05:57.713Z,101083.01
2023-02-24T12:08:37.581Z,101074.10
2023-02-24T12:11:33.180Z,101064.59
2023-02-24T12:14:25.731Z,101061.76
2023-02-24T12:17:32.362Z,101055.36
2023-02-24T12:20:14.399Z,101052.73
2023-02-24T12:22:56.020Z,101051.14
2023-02-24T12:25:30.208Z,101049.25
2023-02-24T12:28:18.802Z,101044.90
2023-02-24T12:31:24.556Z,101037.38
2023-02-24T12:34:12.685Z,101037.87
2023-02-24T12:36:43.786Z,101033.11
2023-02-24T12:39:32.546Z,101027.23
2023-02-24T12:42:19.577Z,101023.31
2023-02-24T12:45:22.527Z,101023.95
2023-02-24T12:47:51.120Z,101020.41
2023-02-24T12:50:29.145Z,101018.86
2023-02-24T12:53:23.457Z,101013.06
2023-02-24T12:55:58.774Z,101015.36
2023-02-24T12:58:41.136Z,101014.84
2023-02-24T13:01:27.636Z,101003.19
2023-02-24T13:04:41.957Z,100999.27
2023-02-24T13:07:29.001Z,100991.23
2023-02-24T13:10:09.393Z,100989.08
2023-02-24T13:12:53.253Z,100985.17
2023-02-24T13:15:48.766Z,100981.73
2023-02-24T13:18:46.495Z,100971.53
2023-02-24T13:21:14.863Z,100967.47
2023-02-24T13:23:57.549Z,100965.64
2023-02-24T13:26:27.844Z,100967.89
2023-02-24T13:29:13.293Z,100959.86
2023-02-24T13:31:50.182Z,100956.54
2023-02-24T13:34:31.777Z,100952.36
2023-02-24T13:37:00.706Z,100947.17
2023-02-24T13:39:38.187Z,100941.83
2023-02-24T13:42:19.596Z,100937.02
2023-02-24T13:45:04.142Z,100939.95
2023-02-24T13:47:47.579Z,100938.42
2023-02-24T13:50:27.607Z,100932.38
2023-02-24T13:53:47.105Z,100926.86
2023-02-24T13:56:35.888Z,100928.79
2023-02-24T13:59:26.927Z,100924.95
2023-02-24T14:02:00.640Z,100920.71
2023-02-24T14:04:33.422Z,100915.96
2023-02-24T14:07:09.811Z,100909.46
2023-02-24T14:09:48.286Z,100908.34
2023-02-24T14:12:23.071Z,100907.75
2023-02-24T14:14:53.675Z,100904.25
2023-02-24T14:17:28.818Z,100899.58
2023-02-24T14:20:06.843Z,100896.52
2023-02-24T14:22:43.808Z,100890.02
2023-02-24T14:25:12.438Z,100890.08
2023-02-24T14:27:53.934Z,100883.58
2023-02-24T14:30:38.668Z,100881.92
2023-02-24T14:33:08.521Z,100881.85
2023-02-24T14:35:42.979Z,100880.58
2023-02-24T14:38:37.231Z,100874.60
2023-02-24T14:41:06.739Z,100870.98
2023-02-24T14:43:42.220Z,100870.11
2023-02-24T14:46:10.688Z,100865.81
2023-02-24T14:48:38.967Z,100869.46
2023-02-24T14:51:21.634Z,100865.55
2023-02-24T14:53:56.907Z,100863.65
2023-02-24T14:56:30.021Z,100857.58
2023-02-24T14:59:02.792Z,100856.66
2023-02-24T15:01:33.928Z,100856.93
2023-02-24T15:04:30.021Z,100852.09
2023-02-24T15:06:58.708Z,100846.21
2023-02-24T15:09:34.765Z,100844.95
2023-02-24T15:12:12.648Z,100840.93
2023-02-24T15:14:53.987Z,100845.71
2023-02-24T15:17:23.921Z,100837.01
2023-02-24T15:19:56.029Z,100833.10
2023-02-24T15:22:33.849Z,100834.33
2023-02-24T15:25:28.026Z,100833.52
2023-02-24T15:28:04.940Z,100833.63
2023-02-24T15:30:36.488Z,100832.01
2023-02-24T15:33:23.422Z,100830.75
2023-02-24T15:35:54.719Z,100827.95
2023-02-24T15:38:32.813Z,100825.59
2023-02-24T15:41:04.780Z,100828.04
2023-02-24T15:43:35.162Z,100821.55
2023-02-24T15:46:22.994Z,100822.04
2023-02-24T15:48:53.309Z,100819.02
2023-02-24T15:51:29.853Z,100811.85
2023-02-24T15:54:03.121Z,100807.27
2023-02-24T15:56:33.179Z,100799.24
2023-02-24T15:59:02.892Z,100800.23
2023-02-24T16:01:33.199Z,100800.50
2023-02-24T16:04:01.635Z,100791.14
2023-02-24T16:06:36.294Z,100788.46
2023-02-24T16:09:05.423Z,100788.37
2023-02-24T16:11:35.968Z,100782.92
2023-02-24T16:14:07.776Z,100781.44
2023-02-24T16:16:37.566Z,100785.10
2023-02-24T16:19:10.809Z,100780.81
2023-02-24T16:21:40.741Z,100778.84
2023-02-24T16:24:09.357Z,100781.45
2023-02-24T16:26:39.488Z,100776.52
2023-02-24T16:29:20.777Z,100772.08
2023-02-24T16:31:50.569Z,100768.02
2023-02-24T16:34:19.893Z,100773.61
2023-02-24T16:36:50.693Z,100770.93
2023-02-24T16:39:19.747Z,100763.25
2023-02-24T16:41:48.170Z,100762.07
2023-02-24T16:44:16.547Z,100760.39
2023-02-24T16:46:47.848Z,100756.27
2023-02-24T16:49:22.503Z,100752.52
2023-02-24T16:51:51.418Z,100752.17
2023-02-24T16:54:22.395Z,100749.63
2023-02-24T16:57:05.140Z,100747.61
2023-02-24T16:59:41.136Z,100746.30
2023-02-24T17:02:21.737Z,100743.39
2023-02-24T17:04:56.927Z,100743.07
2023-02-24T17:07:39.441Z,100735.51
2023-02-24T17:10:13.251Z,100732.27
2023-02-24T17:12:44.428Z,100721.27
2023-02-24T17:15:26.461Z,100718.23
2023-02-24T17:17:55.002Z,100710.73
2023-02-24T17:20:23.464Z,100705.77
2023-02-24T17:22:54.309Z,100702.84
2023-02-24T17:25:27.190Z,100699.80
2023-02-24T17:27:56.551Z,100697.29
2023-02-24T17:30:28.225Z,100688.73
2023-02-24T17:32:56.619Z,100689.13
2023-02-24T17:35:26.174Z,100685.58
2023-02-24T17:37:56.089Z,100680.79
2023-02-24T17:40:24.421Z,100682.88
2023-02-24T17:42:52.922Z,100685.67
2023-02-24T17:45:32.096Z,100693.45
2023-02-24T17:48:04.051Z,100694.82
2023-02-24T17:50:32.323Z,100690.73
2023-02-24T17:53:01.771Z,100690.59
2023-02-24T17:55:30.506Z,100688.19
2023-02-24T17:58:02.450Z,100688.54
2023-02-24T18:00:30.824Z,100688.19
2023-02-24T18:03:03.530Z,100684.41
2023-02-24T18:05:35.023Z,100679.08
2023-02-24T18:08:05.719Z,100679.59
2023-02-24T18:10:34.904Z,100679.42
2023-02-24T18:13:03.863Z,100677.04
2023-02-24T18:20:03.648Z,100676.77
2023-02-24T18:22:48.319Z,100665.23
2023-02-24T18:28:45.256Z,100667.86
2023-02-24T18:35:58.621Z,100662.83
2023-02-24T18:38:29.052Z,100661.16
2023-02-24T18:41:02.051Z,100659.15
2023-02-24T18:43:34.287Z,100658.86
2023-02-24T18:46:05.960Z,100652.34
2023-02-24T18:48:37.795Z,100652.36
2023-02-24T18:51:07.424Z,100652.94
2023-02-24T18:53:39.422Z,100648.52
2023-02-24T18:56:10.242Z,100649.27
2023-02-24T18:58:40.820Z,100645.33
2023-02-24T19:01:12.810Z,100645.34
2023-02-24T19:03:44.077Z,100645.21
2023-02-24T19:06:14.178Z,100644.59
2023-02-24T19:08:42.784Z,100638.95
2023-02-24T19:11:21.827Z,100637.64
2023-02-24T19:13:52.278Z,100636.30
2023-02-24T19:16:21.290Z,100632.93
2023-02-24T19:18:55.245Z,100632.10
2023-02-24T19:21:25.145Z,100632.65
2023-02-24T19:23:54.235Z,100630.81
2023-02-24T19:26:25.365Z,100629.14
2023-02-24T19:28:58.272Z,100627.10
2023-02-24T19:31:28.679Z,100628.14
2023-02-24T19:34:00.839Z,100623.32
2023-02-24T19:36:31.286Z,100623.67
2023-02-24T19:38:59.988Z,100618.70
2023-02-24T19:41:36.051Z,100612.02
2023-02-24T19:44:06.916Z,100613.88
2023-02-24T19:46:55.417Z,100613.74
2023-02-24T19:49:23.775Z,100608.58
2023-02-24T19:52:14.829Z,100610.45
2023-02-24T19:54:48.370Z,100609.05
2023-02-24T19:57:19.502Z,100608.52
2023-02-24T19:59:51.910Z,100604.89
2023-02-24T20:02:20.634Z,100602.81
2023-02-24T20:04:48.897Z,100600.36
2023-02-24T20:07:22.989Z,100598.95
2023-02-24T20:09:53.774Z,100596.55
2023-02-24T20:12:22.026Z,100598.77
2023-02-24T20:14:50.899Z,100599.25
2023-02-24T20:17:20.696Z,100600.59
2023-02-24T20:19:49.274Z,100593.79
2023-02-24T20:22:18.169Z,100594.23
2023-02-24T20:24:48.853Z,100593.95
2023-02-24T20:27:20.449Z,100590.93
2023-02-24T20:29:49.810Z,100589.16
2023-02-24T20:32:19.619Z,100586.89
2023-02-24T20:34:49.721Z,100587.22
2023-02-24T20:37:18.740Z,100585.86
2023-02-24T20:39:47.271Z,100582.67
2023-02-24T20:42:20.853Z,100579.27
2023-02-24T20:44:49.609Z,100576.40
2023-02-24T20:47:19.201Z,100576.10
2023-02-24T20:49:47.810Z,100573.41
2023-02-24T20:52:16.368Z,100570.89
2023-02-24T20:54:45.840Z,100570.95
2023-02-24T20:57:15.413Z,100564.95
2023-02-24T20:59:57.835Z,100557.01
2023-02-24T21:02:31.705Z,100558.48
2023-02-24T21:05:00.669Z,100555.17
2023-02-24T21:07:29.448Z,100548.38
2023-02-24T21:10:01.453Z,100547.61
2023-02-24T21:12:31.078Z,100542.02
2023-02-24T21:14:59.322Z,100539.08
2023-02-24T21:17:36.357Z,100536.33
2023-02-24T21:20:05.541Z,100526.89
2023-02-24T21:22:35.955Z,100524.90
2023-02-24T21:25:04.802Z,100518.59
2023-02-24T21:27:33.370Z,100520.35
2023-02-24T21:30:01.643Z,100510.40
2023-02-24T21:32:30.028Z,100506.46
2023-02-24T21:34:58.534Z,100501.64
2023-02-24T21:37:26.805Z,100495.79
2023-02-24T21:39:55.121Z,100492.48
2023-02-24T21:42:23.595Z,100488.80
2023-02-24T21:44:51.987Z,100491.45
2023-02-24T21:47:21.167Z,100490.33
2023-02-24T21:49:49.705Z,100480.23
2023-02-24T21:52:20.041Z,100479.12
2023-02-24T21:54:50.027Z,100475.62
2023-02-24T21:57:19.768Z,100474.37
2023-02-24T21:59:47.978Z,100476.77
2023-02-24T22:02:17.508Z,100475.70
2023-02-24T22:04:45.978Z,100475.70
2023-02-24T22:07:20.340Z,100473.33
2023-02-24T22:09:49.859Z,100471.23
2023-02-24T22:12:20.509Z,100473.77
2023-02-24T22:14:51.333Z,100471.80
2023-02-24T22:17:31.917Z,100469.52
2023-02-24T22:20:07.967Z,100464.95
2023-02-24T22:22:38.209Z,100461.41
2023-02-24T22:25:07.130Z,100453.73
2023-02-24T22:27:39.026Z,100449.45
2023-02-24T22:30:08.265Z,100447.12
2023-02-24T22:32:38.046Z,100443.25
2023-02-24T22:35:06.530Z,100436.81
2023-02-24T22:37:37.916Z,100427.98
2023-02-24T22:40:07.070Z,100423.13
2023-02-24T22:42:36.043Z,100420.73
2023-02-24T22:45:04.834Z,100417.02
2023-02-24T22:47:33.083Z,100415.71
2023-02-24T22:50:01.275Z,100415.57
2023-02-24T22:52:29.940Z,100411.21
2023-02-24T22:54:58.558Z,100415.08
2023-02-24T22:57:27.400Z,100409.61
2023-02-24T22:59:56.221Z,100417.39
2023-02-24T23:02:25.543Z,100401.09
2023-02-24T23:04:55.518Z,100396.15
2023-02-24T23:07:24.790Z,100388.11
2023-02-24T23:09:53.221Z,100384.41
2023-02-24T23:12:22.376Z,100378.16
2023-02-24T23:14:50.934Z,100375.18
2023-02-24T23:17:24.272Z,100369.63
2023-02-24T23:19:52.608Z,100365.08
2023-02-24T23:22:20.816Z,100364.52
2023-02-24T23:24:51.040Z,100361.04
2023-02-24T23:27:21.551Z,100358.55
2023-02-24T23:29:50.173Z,100348.48
2023-02-24T23:32:18.408Z,100352.57
2023-02-24T23:34:49.579Z,100354.04
2023-02-24T23:37:17.990Z,100352.88
2023-02-24T23:39:46.973Z,100359.23
2023-02-24T23:42:18.164Z,100353.03
2023-02-24T23:44:49.612Z,100354.54
2023-02-24T23:47:17.816Z,100348.13
2023-02-24T23:49:48.549Z,100347.50
2023-02-24T23:52:18.353Z,100340.13
2023-02-24T23:54:55.620Z,100334.61
2023-02-24T23:57:27.135Z,100330.21
2023-02-24T23:59:59.103Z,100320.84
